Fortuna, CA

9:52 AM PDT on August 28, 2014 (GMT -0700)
Rohnerville | Change Station
CLOSE
Current Station
Airport
Location: Fortuna,
Elevation: 394 ft
Nearby Weather Stations

Elev 394 ft 40.55 °N, 124.13 °W | Updated 17 minutes ago

Overcast
Overcast
55 °F
Feels Like 55 °F
N
0
Wind Variable Wind from North

Today
High -- | Low -- °F
--% Chance of Precip.
Yesterday
High -- | Low -- °F
Precip. -- in
6:39 AM 7:54 PM
Waxing Crescent, 9% visible
Pressure 30.08 in
Visibility 0.2 miles
Clouds Overcast 200 ft
Dew Point 55 °F
Humidity 100%
Rainfall 0.00 in
Snow Depth Not available.
UV 1 out of 12
Pollen 9.20 out of 12
Air Quality Not available.
Flu Activity Not available.
METAR KFOT 281635Z AUTO 00000KT 1/4SM OVC002 13/13 A3008 RMK AO1

More Conditions Fewer Conditions

Pressure 30.08 in
Visibility 0.2 miles
Clouds Overcast 200 ft
Dew Point 55 °F
Humidity 100%
Rainfall 0.00 in
Snow Depth Not available.
UV 1 out of 12
Pollen 9.20 out of 12
Air Quality Not available.
Flu Activity Not available.
METAR KFOT 281635Z AUTO 00000KT 1/4SM OVC002 13/13 A3008 RMK AO1

More Conditions Fewer Conditions

10-Day Weather Forecast

Almanac

Astronomy

Aug. 28, 2014 Rise Set
Actual Time 6:39 AM PDT 7:54 PM PDT
Civil Twilight 6:11 AM PDT 8:22 PM PDT
Nautical Twilight 5:37 AM PDT 8:56 PM PDT
Astronomical Twilight 5:02 AM PDT 9:32 PM PDT
Moon 9:38 AM PDT 9:20 PM PDT
Length of Visible Light 14h 11m
Length of Day
13h 14m
Tomorrow will be 2m 32s shorter.
Waxing Crescent, 9% of the Moon is Illuminated
Today
Waxing Crescent
Sep 2
First Quarter
Sep 8
Full
Sep 15
Last Quarter
Sep 24
New

Today's Extremes

State Highs State Lows

Community

WunderPhotos

Upload Photos

1,748,013 photos uploaded!

Nearby

Snow Depth

Station Depth Elevation
Adin Mountain 1 in 6200 ft
Crowder Flat 0 in 5100 ft
Cedar Pass 0 in 7100 ft
CSS Lab 2 in 6900 ft
Forestdale Creek 0 in 8029 ft

Earthquake Activity

City Distance Mag. Time & Date
The Geysers, California 138 miles 2.6 7:42 AM PDT
2014-08-27
Hayfork, California 47 miles 2.7 2:57 PM PDT
2014-08-25
Minimum magnitude displayed is 2.5.

Coastal Water Temperatures

Place Temperature
Crescent City, CA 61.0 °F
North Spit, CA 61.0 °F
Port Orford, OR 55.0 °F

Nearby Weather Stations